sensor_id;sensor_type;location;lat;lon;timestamp;pressure;altitude;pressure_sealevel;temperature;humidity
70730;BME280;58315;53.336;55.932;2023-05-17T00:00:54;100048.44;;;17.21;41.08
70730;BME280;58315;53.336;55.932;2023-05-17T00:03:20;100059.31;;;17.20;41.14
70730;BME280;58315;53.336;55.932;2023-05-17T00:05:46;100052.47;;;17.17;41.35
70730;BME280;58315;53.336;55.932;2023-05-17T00:08:12;100056.28;;;17.15;41.37
70730;BME280;58315;53.336;55.932;2023-05-17T00:10:38;100065.16;;;17.15;41.16
70730;BME280;58315;53.336;55.932;2023-05-17T00:13:04;100056.28;;;17.15;41.14
70730;BME280;58315;53.336;55.932;2023-05-17T00:15:31;100063.47;;;17.14;41.32
70730;BME280;58315;53.336;55.932;2023-05-17T00:17:57;100073.19;;;17.15;41.35
70730;BME280;58315;53.336;55.932;2023-05-17T00:20:23;100071.50;;;17.14;41.22
70730;BME280;58315;53.336;55.932;2023-05-17T00:22:49;100064.00;;;17.09;41.42
70730;BME280;58315;53.336;55.932;2023-05-17T00:25:15;100070.84;;;17.04;41.46
70730;BME280;58315;53.336;55.932;2023-05-17T00:27:42;100073.53;;;17.04;41.38
70730;BME280;58315;53.336;55.932;2023-05-17T00:30:08;100076.69;;;16.99;41.46
70730;BME280;58315;53.336;55.932;2023-05-17T00:32:36;100069.16;;;17.03;41.44
70730;BME280;58315;53.336;55.932;2023-05-17T00:35:03;100077.88;;;16.97;41.63
70730;BME280;58315;53.336;55.932;2023-05-17T00:37:31;100088.19;;;16.92;41.60
70730;BME280;58315;53.336;55.932;2023-05-17T00:39:57;100085.88;;;16.97;41.35
70730;BME280;58315;53.336;55.932;2023-05-17T00:42:23;100082.34;;;16.96;41.39
70730;BME280;58315;53.336;55.932;2023-05-17T00:44:49;100077.69;;;16.98;41.24
70730;BME280;58315;53.336;55.932;2023-05-17T00:47:16;100078.53;;;16.99;41.33
70730;BME280;58315;53.336;55.932;2023-05-17T00:49:42;100086.03;;;16.95;41.33
70730;BME280;58315;53.336;55.932;2023-05-17T00:52:09;100089.69;;;17.02;41.09
70730;BME280;58315;53.336;55.932;2023-05-17T00:54:35;100088.53;;;17.05;41.13
70730;BME280;58315;53.336;55.932;2023-05-17T00:57:02;100091.03;;;17.06;40.98
70730;BME280;58315;53.336;55.932;2023-05-17T00:59:29;100093.19;;;17.11;40.89
70730;BME280;58315;53.336;55.932;2023-05-17T01:01:55;100093.19;;;17.11;40.92
70730;BME280;58315;53.336;55.932;2023-05-17T01:04:21;100092.88;;;17.06;40.71
70730;BME280;58315;53.336;55.932;2023-05-17T01:06:48;100100.19;;;17.28;40.78
70730;BME280;58315;53.336;55.932;2023-05-17T01:09:14;100098.59;;;17.58;40.27
70730;BME280;58315;53.336;55.932;2023-05-17T01:12:00;100099.97;;;18.02;39.88
70730;BME280;58315;53.336;55.932;2023-05-17T01:14:49;100105.63;;;18.15;39.54
70730;BME280;58315;53.336;55.932;2023-05-17T01:20:19;100101.97;;;18.08;39.24
70730;BME280;58315;53.336;55.932;2023-05-17T01:28:56;100104.06;;;17.73;39.50
70730;BME280;58315;53.336;55.932;2023-05-17T01:31:23;100111.47;;;17.55;39.73
70730;BME280;58315;53.336;55.932;2023-05-17T01:33:50;100107.66;;;17.49;40.24
70730;BME280;58315;53.336;55.932;2023-05-17T01:36:16;100102.31;;;17.49;40.17
70730;BME280;58315;53.336;55.932;2023-05-17T01:38:43;100104.47;;;17.54;40.47
70730;BME280;58315;53.336;55.932;2023-05-17T01:44:01;100112.59;;;17.69;40.46
70730;BME280;58315;53.336;55.932;2023-05-17T01:46:38;100103.59;;;17.70;40.44
70730;BME280;58315;53.336;55.932;2023-05-17T01:54:45;100113.69;;;17.99;39.86
70730;BME280;58315;53.336;55.932;2023-05-17T01:57:13;100125.38;;;18.06;39.88
70730;BME280;58315;53.336;55.932;2023-05-17T01:59:42;100120.31;;;18.19;39.58
70730;BME280;58315;53.336;55.932;2023-05-17T02:02:08;100113.91;;;18.28;39.21
70730;BME280;58315;53.336;55.932;2023-05-17T02:04:35;100119.69;;;18.40;38.80
70730;BME280;58315;53.336;55.932;2023-05-17T02:07:02;100123.09;;;18.57;38.62
70730;BME280;58315;53.336;55.932;2023-05-17T02:09:29;100126.38;;;18.67;38.73
70730;BME280;58315;53.336;55.932;2023-05-17T02:11:55;100126.34;;;18.75;38.28
70730;BME280;58315;53.336;55.932;2023-05-17T02:14:22;100125.56;;;18.90;37.66
70730;BME280;58315;53.336;55.932;2023-05-17T02:16:49;100127.25;;;18.91;36.94
70730;BME280;58315;53.336;55.932;2023-05-17T02:19:15;100134.06;;;18.93;36.80
70730;BME280;58315;53.336;55.932;2023-05-17T02:21:41;100135.66;;;18.88;36.49
70730;BME280;58315;53.336;55.932;2023-05-17T02:24:07;100127.59;;;18.88;36.71
70730;BME280;58315;53.336;55.932;2023-05-17T02:26:33;100132.34;;;19.00;36.64
70730;BME280;58315;53.336;55.932;2023-05-17T02:29:01;100140.44;;;19.15;36.70
70730;BME280;58315;53.336;55.932;2023-05-17T02:31:29;100148.22;;;19.25;35.89
70730;BME280;58315;53.336;55.932;2023-05-17T02:33:56;100147.66;;;19.30;35.87
70730;BME280;58315;53.336;55.932;2023-05-17T02:36:22;100141.88;;;19.41;36.09
70730;BME280;58315;53.336;55.932;2023-05-17T02:38:48;100140.69;;;19.43;35.54
70730;BME280;58315;53.336;55.932;2023-05-17T02:41:14;100145.69;;;19.46;35.67
70730;BME280;58315;53.336;55.932;2023-05-17T02:43:40;100146.44;;;19.55;35.90
70730;BME280;58315;53.336;55.932;2023-05-17T02:46:07;100152.25;;;19.59;35.60
70730;BME280;58315;53.336;55.932;2023-05-17T02:48:33;100152.75;;;19.77;35.80
70730;BME280;58315;53.336;55.932;2023-05-17T02:50:59;100151.94;;;20.06;35.41
70730;BME280;58315;53.336;55.932;2023-05-17T02:53:25;100145.22;;;20.32;35.38
70730;BME280;58315;53.336;55.932;2023-05-17T02:55:51;100153.75;;;20.71;35.41
70730;BME280;58315;53.336;55.932;2023-05-17T02:58:17;100151.88;;;21.58;34.27
70730;BME280;58315;53.336;55.932;2023-05-17T03:00:44;100152.97;;;22.46;33.45
70730;BME280;58315;53.336;55.932;2023-05-17T03:03:11;100153.31;;;23.57;32.68
70730;BME280;58315;53.336;55.932;2023-05-17T03:05:37;100161.09;;;24.19;31.17
70730;BME280;58315;53.336;55.932;2023-05-17T03:08:03;100161.13;;;24.95;30.48
70730;BME280;58315;53.336;55.932;2023-05-17T03:10:30;100158.53;;;25.64;29.86
70730;BME280;58315;53.336;55.932;2023-05-17T03:12:56;100162.16;;;26.50;29.23
70730;BME280;58315;53.336;55.932;2023-05-17T03:15:26;100160.03;;;27.12;27.69
70730;BME280;58315;53.336;55.932;2023-05-17T03:17:54;100159.25;;;27.70;27.94
70730;BME280;58315;53.336;55.932;2023-05-17T03:20:23;100168.38;;;27.87;27.96
70730;BME280;58315;53.336;55.932;2023-05-17T03:22:49;100163.88;;;27.93;27.83
70730;BME280;58315;53.336;55.932;2023-05-17T03:25:16;100164.94;;;27.80;27.30
70730;BME280;58315;53.336;55.932;2023-05-17T03:27:42;100169.44;;;27.75;26.85
70730;BME280;58315;53.336;55.932;2023-05-17T03:30:08;100176.88;;;27.79;26.11
70730;BME280;58315;53.336;55.932;2023-05-17T03:32:38;100170.25;;;27.75;25.65
70730;BME280;58315;53.336;55.932;2023-05-17T03:35:05;100171.78;;;27.95;25.87
70730;BME280;58315;53.336;55.932;2023-05-17T03:37:33;100166.56;;;27.93;26.29
70730;BME280;58315;53.336;55.932;2023-05-17T03:39:59;100166.34;;;27.48;25.95
70730;BME280;58315;53.336;55.932;2023-05-17T03:42:25;100156.78;;;26.61;26.68
70730;BME280;58315;53.336;55.932;2023-05-17T03:44:52;100163.38;;;26.17;27.67
70730;BME280;58315;53.336;55.932;2023-05-17T03:47:19;100164.22;;;25.74;27.72
70730;BME280;58315;53.336;55.932;2023-05-17T03:49:49;100159.81;;;25.36;28.74
70730;BME280;58315;53.336;55.932;2023-05-17T03:52:15;100152.84;;;25.47;28.41
70730;BME280;58315;53.336;55.932;2023-05-17T03:54:42;100153.91;;;25.21;28.82
70730;BME280;58315;53.336;55.932;2023-05-17T03:57:08;100156.28;;;25.11;28.74
70730;BME280;58315;53.336;55.932;2023-05-17T03:59:35;100158.31;;;24.84;29.21
70730;BME280;58315;53.336;55.932;2023-05-17T04:02:04;100147.53;;;24.77;29.19
70730;BME280;58315;53.336;55.932;2023-05-17T04:04:30;100154.31;;;24.86;29.41
70730;BME280;58315;53.336;55.932;2023-05-17T04:06:56;100149.28;;;24.65;29.55
70730;BME280;58315;53.336;55.932;2023-05-17T04:09:24;100148.72;;;24.49;29.80
70730;BME280;58315;53.336;55.932;2023-05-17T04:11:50;100146.59;;;24.65;30.08
70730;BME280;58315;53.336;55.932;2023-05-17T04:14:17;100144.09;;;24.63;30.38
70730;BME280;58315;53.336;55.932;2023-05-17T04:16:44;100146.13;;;24.68;29.02
70730;BME280;58315;53.336;55.932;2023-05-17T04:19:10;100155.56;;;24.90;29.61
70730;BME280;58315;53.336;55.932;2023-05-17T04:21:36;100146.78;;;25.26;29.29
70730;BME280;58315;53.336;55.932;2023-05-17T04:24:02;100151.59;;;25.93;28.38
70730;BME280;58315;53.336;55.932;2023-05-17T04:26:28;100147.50;;;26.20;28.11
70730;BME280;58315;53.336;55.932;2023-05-17T04:28:55;100156.31;;;26.53;27.53
70730;BME280;58315;53.336;55.932;2023-05-17T04:31:21;100152.06;;;26.57;27.74
70730;BME280;58315;53.336;55.932;2023-05-17T04:33:48;100148.22;;;26.64;27.68
70730;BME280;58315;53.336;55.932;2023-05-17T04:36:15;100151.06;;;26.69;27.31
70730;BME280;58315;53.336;55.932;2023-05-17T04:38:42;100158.22;;;26.64;27.17
70730;BME280;58315;53.336;55.932;2023-05-17T04:41:11;100150.50;;;26.49;26.81
70730;BME280;58315;53.336;55.932;2023-05-17T04:43:38;100151.72;;;26.16;27.44
70730;BME280;58315;53.336;55.932;2023-05-17T04:46:09;100149.41;;;26.02;27.95
70730;BME280;58315;53.336;55.932;2023-05-17T04:48:35;100152.25;;;25.88;27.84
70730;BME280;58315;53.336;55.932;2023-05-17T04:51:04;100148.50;;;26.08;27.04
70730;BME280;58315;53.336;55.932;2023-05-17T04:53:31;100145.34;;;26.11;27.03
70730;BME280;58315;53.336;55.932;2023-05-17T04:55:59;100148.19;;;26.34;27.60
70730;BME280;58315;53.336;55.932;2023-05-17T04:58:26;100152.78;;;26.94;27.45
70730;BME280;58315;53.336;55.932;2023-05-17T05:00:56;100147.69;;;27.63;26.99
70730;BME280;58315;53.336;55.932;2023-05-17T05:03:23;100149.47;;;27.69;26.63
70730;BME280;58315;53.336;55.932;2023-05-17T05:05:50;100144.41;;;27.61;26.28
70730;BME280;58315;53.336;55.932;2023-05-17T05:08:16;100143.44;;;27.55;26.68
70730;BME280;58315;53.336;55.932;2023-05-17T05:10:45;100134.59;;;27.36;26.30
70730;BME280;58315;53.336;55.932;2023-05-17T05:13:13;100142.19;;;26.92;26.84
70730;BME280;58315;53.336;55.932;2023-05-17T05:15:40;100134.22;;;26.79;26.79
70730;BME280;58315;53.336;55.932;2023-05-17T05:18:06;100126.94;;;26.80;26.88
70730;BME280;58315;53.336;55.932;2023-05-17T05:20:32;100128.97;;;27.50;26.42
70730;BME280;58315;53.336;55.932;2023-05-17T05:22:59;100131.06;;;27.95;25.96
70730;BME280;58315;53.336;55.932;2023-05-17T05:25:26;100127.34;;;28.01;25.54
70730;BME280;58315;53.336;55.932;2023-05-17T05:27:53;100128.13;;;27.84;25.80
70730;BME280;58315;53.336;55.932;2023-05-17T05:30:19;100126.56;;;27.53;25.64
70730;BME280;58315;53.336;55.932;2023-05-17T05:32:50;100123.84;;;27.41;26.25
70730;BME280;58315;53.336;55.932;2023-05-17T05:35:17;100112.09;;;27.36;26.15
70730;BME280;58315;53.336;55.932;2023-05-17T05:37:44;100117.22;;;27.96;26.00
70730;BME280;58315;53.336;55.932;2023-05-17T05:40:10;100110.03;;;28.59;25.17
70730;BME280;58315;53.336;55.932;2023-05-17T05:42:40;100111.44;;;29.41;25.24
70730;BME280;58315;53.336;55.932;2023-05-17T05:45:07;100109.75;;;29.73;23.87
70730;BME280;58315;53.336;55.932;2023-05-17T05:47:33;100111.66;;;29.95;24.18
70730;BME280;58315;53.336;55.932;2023-05-17T05:49:59;100110.16;;;30.26;23.61
70730;BME280;58315;53.336;55.932;2023-05-17T05:52:26;100113.91;;;31.01;22.49
70730;BME280;58315;53.336;55.932;2023-05-17T05:54:52;100102.22;;;31.96;22.16
70730;BME280;58315;53.336;55.932;2023-05-17T05:57:18;100098.06;;;32.76;22.00
70730;BME280;58315;53.336;55.932;2023-05-17T05:59:44;100103.59;;;33.07;19.29
70730;BME280;58315;53.336;55.932;2023-05-17T06:02:10;100091.28;;;32.99;19.87
70730;BME280;58315;53.336;55.932;2023-05-17T06:04:36;100094.78;;;33.30;19.67
70730;BME280;58315;53.336;55.932;2023-05-17T06:07:03;100096.72;;;33.30;19.20
70730;BME280;58315;53.336;55.932;2023-05-17T06:09:29;100100.03;;;33.06;18.86
70730;BME280;58315;53.336;55.932;2023-05-17T06:11:55;100097.53;;;32.84;19.22
70730;BME280;58315;53.336;55.932;2023-05-17T06:14:21;100103.25;;;32.57;19.50
70730;BME280;58315;53.336;55.932;2023-05-17T06:16:47;100091.94;;;32.23;20.17
70730;BME280;58315;53.336;55.932;2023-05-17T06:19:14;100090.28;;;31.54;20.47
70730;BME280;58315;53.336;55.932;2023-05-17T06:21:40;100092.38;;;31.05;20.95
70730;BME280;58315;53.336;55.932;2023-05-17T06:24:06;100090.22;;;30.20;21.30
70730;BME280;58315;53.336;55.932;2023-05-17T06:26:33;100083.47;;;29.84;21.78
70730;BME280;58315;53.336;55.932;2023-05-17T06:29:00;100075.03;;;29.47;22.13
70730;BME280;58315;53.336;55.932;2023-05-17T06:31:26;100068.88;;;29.35;22.69
70730;BME280;58315;53.336;55.932;2023-05-17T06:33:53;100072.75;;;29.39;23.50
70730;BME280;58315;53.336;55.932;2023-05-17T06:36:19;100063.13;;;28.97;23.21
70730;BME280;58315;53.336;55.932;2023-05-17T06:38:45;100065.63;;;28.25;23.56
70730;BME280;58315;53.336;55.932;2023-05-17T06:41:11;100073.34;;;27.64;24.07
70730;BME280;58315;53.336;55.932;2023-05-17T06:43:37;100059.81;;;27.40;23.89
70730;BME280;58315;53.336;55.932;2023-05-17T06:46:03;100059.00;;;27.40;23.06
70730;BME280;58315;53.336;55.932;2023-05-17T06:48:29;100073.28;;;27.35;23.20
70730;BME280;58315;53.336;55.932;2023-05-17T06:50:57;100068.16;;;26.92;22.09
70730;BME280;58315;53.336;55.932;2023-05-17T06:53:24;100069.09;;;26.98;22.43
70730;BME280;58315;53.336;55.932;2023-05-17T06:55:52;100064.50;;;27.10;22.70
70730;BME280;58315;53.336;55.932;2023-05-17T06:58:18;100052.84;;;27.33;22.47
70730;BME280;58315;53.336;55.932;2023-05-17T07:00:44;100042.22;;;27.55;22.59
70730;BME280;58315;53.336;55.932;2023-05-17T07:03:09;100046.34;;;27.57;22.27
70730;BME280;58315;53.336;55.932;2023-05-17T07:05:36;100052.34;;;27.59;22.16
70730;BME280;58315;53.336;55.932;2023-05-17T07:08:02;100052.03;;;27.32;22.12
70730;BME280;58315;53.336;55.932;2023-05-17T07:10:28;100054.41;;;27.29;21.83
70730;BME280;58315;53.336;55.932;2023-05-17T07:12:54;100047.91;;;27.30;21.94
70730;BME280;58315;53.336;55.932;2023-05-17T07:15:20;100038.91;;;27.53;22.21
70730;BME280;58315;53.336;55.932;2023-05-17T07:17:46;100040.41;;;27.72;22.19
70730;BME280;58315;53.336;55.932;2023-05-17T07:20:13;100032.22;;;27.20;22.09
70730;BME280;58315;53.336;55.932;2023-05-17T07:22:39;100037.84;;;27.07;22.09
70730;BME280;58315;53.336;55.932;2023-05-17T07:25:06;100046.34;;;27.10;22.04
70730;BME280;58315;53.336;55.932;2023-05-17T07:27:33;100040.72;;;27.12;22.03
70730;BME280;58315;53.336;55.932;2023-05-17T07:29:59;100036.94;;;27.13;21.93
70730;BME280;58315;53.336;55.932;2023-05-17T07:32:25;100042.09;;;27.03;22.03
70730;BME280;58315;53.336;55.932;2023-05-17T07:34:51;100035.00;;;26.78;22.52
70730;BME280;58315;53.336;55.932;2023-05-17T07:37:18;100040.63;;;26.65;22.15
70730;BME280;58315;53.336;55.932;2023-05-17T07:39:43;100038.06;;;26.82;22.48
70730;BME280;58315;53.336;55.932;2023-05-17T07:42:10;100040.78;;;26.93;22.08
70730;BME280;58315;53.336;55.932;2023-05-17T07:44:36;100046.94;;;27.01;22.16
70730;BME280;58315;53.336;55.932;2023-05-17T07:47:02;100030.56;;;26.96;22.20
70730;BME280;58315;53.336;55.932;2023-05-17T07:49:29;100020.41;;;27.03;21.85
70730;BME280;58315;53.336;55.932;2023-05-17T07:51:55;100022.44;;;27.19;22.08
70730;BME280;58315;53.336;55.932;2023-05-17T07:54:22;100015.94;;;27.20;22.05
70730;BME280;58315;53.336;55.932;2023-05-17T07:56:54;100014.13;;;27.61;22.23
70730;BME280;58315;53.336;55.932;2023-05-17T07:59:23;100003.69;;;27.81;22.02
70730;BME280;58315;53.336;55.932;2023-05-17T08:01:50;100000.69;;;28.23;22.36
70730;BME280;58315;53.336;55.932;2023-05-17T08:04:16;100003.63;;;28.05;21.63
70730;BME280;58315;53.336;55.932;2023-05-17T08:06:44;100002.06;;;27.69;21.67
70730;BME280;58315;53.336;55.932;2023-05-17T08:09:13;99991.75;;;27.82;22.03
70730;BME280;58315;53.336;55.932;2023-05-17T08:11:42;100007.16;;;28.05;21.76
70730;BME280;58315;53.336;55.932;2023-05-17T08:14:15;99994.13;;;27.91;22.01
70730;BME280;58315;53.336;55.932;2023-05-17T08:16:42;100000.09;;;27.93;21.60
70730;BME280;58315;53.336;55.932;2023-05-17T08:19:11;100001.47;;;27.78;21.69
70730;BME280;58315;53.336;55.932;2023-05-17T08:21:41;100005.97;;;27.61;21.69
70730;BME280;58315;53.336;55.932;2023-05-17T08:24:08;100003.38;;;27.66;21.82
70730;BME280;58315;53.336;55.932;2023-05-17T08:26:34;99999.69;;;27.84;21.87
70730;BME280;58315;53.336;55.932;2023-05-17T08:29:01;99994.84;;;27.74;21.46
70730;BME280;58315;53.336;55.932;2023-05-17T08:31:28;99995.50;;;27.93;21.60
70730;BME280;58315;53.336;55.932;2023-05-17T08:33:54;100002.53;;;27.77;21.99
70730;BME280;58315;53.336;55.932;2023-05-17T08:36:20;99987.66;;;27.80;21.56
70730;BME280;58315;53.336;55.932;2023-05-17T08:38:47;99985.22;;;27.95;21.94
70730;BME280;58315;53.336;55.932;2023-05-17T08:41:13;99986.25;;;28.06;21.72
70730;BME280;58315;53.336;55.932;2023-05-17T08:43:39;99985.56;;;27.99;21.81
70730;BME280;58315;53.336;55.932;2023-05-17T08:46:06;99979.53;;;27.68;22.03
70730;BME280;58315;53.336;55.932;2023-05-17T08:48:34;99994.56;;;27.47;22.07
70730;BME280;58315;53.336;55.932;2023-05-17T08:51:03;99983.53;;;27.25;22.04
70730;BME280;58315;53.336;55.932;2023-05-17T08:53:29;99990.22;;;27.46;22.53
70730;BME280;58315;53.336;55.932;2023-05-17T08:56:00;99994.53;;;27.59;22.17
70730;BME280;58315;53.336;55.932;2023-05-17T08:58:33;99989.47;;;27.51;22.71
70730;BME280;58315;53.336;55.932;2023-05-17T09:01:00;99972.81;;;27.59;22.41
70730;BME280;58315;53.336;55.932;2023-05-17T09:03:28;99982.13;;;27.75;22.22
70730;BME280;58315;53.336;55.932;2023-05-17T09:05:57;99981.38;;;27.39;22.15
70730;BME280;58315;53.336;55.932;2023-05-17T09:08:23;99980.56;;;27.15;22.39
70730;BME280;58315;53.336;55.932;2023-05-17T09:10:49;99996.34;;;27.30;22.57
70730;BME280;58315;53.336;55.932;2023-05-17T09:13:16;99976.28;;;27.31;21.68
70730;BME280;58315;53.336;55.932;2023-05-17T09:15:46;99976.47;;;27.53;21.75
70730;BME280;58315;53.336;55.932;2023-05-17T09:18:13;99993.66;;;27.30;21.93
70730;BME280;58315;53.336;55.932;2023-05-17T09:20:44;99985.03;;;27.33;22.09
70730;BME280;58315;53.336;55.932;2023-05-17T09:23:18;99982.03;;;27.58;21.93
70730;BME280;58315;53.336;55.932;2023-05-17T09:25:48;99981.47;;;27.09;21.80
70730;BME280;58315;53.336;55.932;2023-05-17T09:28:17;99996.94;;;27.20;21.93
70730;BME280;58315;53.336;55.932;2023-05-17T09:30:47;99995.22;;;27.14;22.16
70730;BME280;58315;53.336;55.932;2023-05-17T09:33:19;99989.19;;;27.12;22.56
70730;BME280;58315;53.336;55.932;2023-05-17T09:35:46;99985.41;;;27.13;22.63
70730;BME280;58315;53.336;55.932;2023-05-17T09:38:12;99990.22;;;27.34;22.13
70730;BME280;58315;53.336;55.932;2023-05-17T09:40:40;99989.03;;;27.30;22.08
70730;BME280;58315;53.336;55.932;2023-05-17T09:43:06;99972.97;;;27.40;22.21
70730;BME280;58315;53.336;55.932;2023-05-17T09:45:33;99974.06;;;27.39;22.24
70730;BME280;58315;53.336;55.932;2023-05-17T09:48:12;99990.31;;;27.51;22.06
70730;BME280;58315;53.336;55.932;2023-05-17T09:50:46;99984.78;;;27.34;22.02
70730;BME280;58315;53.336;55.932;2023-05-17T09:53:33;99975.31;;;27.49;22.06
70730;BME280;58315;53.336;55.932;2023-05-17T09:56:05;99979.56;;;27.45;22.53
70730;BME280;58315;53.336;55.932;2023-05-17T09:58:34;99976.38;;;27.48;22.69
70730;BME280;58315;53.336;55.932;2023-05-17T10:01:02;99977.38;;;27.70;22.12
70730;BME280;58315;53.336;55.932;2023-05-17T10:03:31;99975.81;;;27.86;21.87
70730;BME280;58315;53.336;55.932;2023-05-17T10:06:00;99964.78;;;27.76;21.59
70730;BME280;58315;53.336;55.932;2023-05-17T10:08:28;99977.69;;;27.85;21.79
70730;BME280;58315;53.336;55.932;2023-05-17T10:10:59;99956.47;;;27.82;22.10
70730;BME280;58315;53.336;55.932;2023-05-17T10:13:33;99962.28;;;28.03;21.27
70730;BME280;58315;53.336;55.932;2023-05-17T10:16:01;99967.97;;;28.01;21.98
70730;BME280;58315;53.336;55.932;2023-05-17T10:18:28;99964.84;;;28.09;21.90
70730;BME280;58315;53.336;55.932;2023-05-17T10:20:55;99969.81;;;27.84;21.56
70730;BME280;58315;53.336;55.932;2023-05-17T10:23:22;99965.97;;;27.68;21.94
70730;BME280;58315;53.336;55.932;2023-05-17T10:25:49;99962.41;;;27.79;22.08
70730;BME280;58315;53.336;55.932;2023-05-17T10:28:16;99967.13;;;27.60;22.35
70730;BME280;58315;53.336;55.932;2023-05-17T10:30:43;99957.50;;;27.53;22.23
70730;BME280;58315;53.336;55.932;2023-05-17T10:33:12;99965.69;;;27.29;21.76
70730;BME280;58315;53.336;55.932;2023-05-17T10:35:38;99957.94;;;27.21;22.48
70730;BME280;58315;53.336;55.932;2023-05-17T10:38:06;99952.50;;;27.21;22.35
70730;BME280;58315;53.336;55.932;2023-05-17T10:40:32;99950.38;;;27.23;22.73
70730;BME280;58315;53.336;55.932;2023-05-17T10:43:01;99940.34;;;27.00;22.37
70730;BME280;58315;53.336;55.932;2023-05-17T10:45:28;99943.19;;;26.93;22.42
70730;BME280;58315;53.336;55.932;2023-05-17T10:47:54;99945.53;;;27.02;22.44
70730;BME280;58315;53.336;55.932;2023-05-17T10:50:24;99932.94;;;27.19;22.24
70730;BME280;58315;53.336;55.932;2023-05-17T10:52:52;99942.34;;;27.16;22.47
70730;BME280;58315;53.336;55.932;2023-05-17T10:55:22;99935.41;;;27.21;22.41
70730;BME280;58315;53.336;55.932;2023-05-17T11:00:39;99933.13;;;27.06;22.11
70730;BME280;58315;53.336;55.932;2023-05-17T11:03:14;99943.78;;;26.84;21.75
70730;BME280;58315;53.336;55.932;2023-05-17T11:08:28;99934.59;;;26.97;22.26
70730;BME280;58315;53.336;55.932;2023-05-17T11:11:10;99934.69;;;26.90;22.20
70730;BME280;58315;53.336;55.932;2023-05-17T11:13:45;99933.13;;;27.06;22.10
70730;BME280;58315;53.336;55.932;2023-05-17T11:16:14;99923.03;;;27.13;22.17
70730;BME280;58315;53.336;55.932;2023-05-17T11:18:49;99918.88;;;27.22;21.88
70730;BME280;58315;53.336;55.932;2023-05-17T11:21:15;99919.84;;;27.28;22.10
70730;BME280;58315;53.336;55.932;2023-05-17T11:23:46;99924.91;;;27.24;21.71
70730;BME280;58315;53.336;55.932;2023-05-17T11:26:22;99916.09;;;27.17;22.12
70730;BME280;58315;53.336;55.932;2023-05-17T11:28:59;99905.06;;;27.35;22.04
70730;BME280;58315;53.336;55.932;2023-05-17T11:31:31;99915.22;;;27.16;21.88
70730;BME280;58315;53.336;55.932;2023-05-17T11:33:57;99912.41;;;27.00;22.02
70730;BME280;58315;53.336;55.932;2023-05-17T11:36:25;99923.50;;;27.10;22.00
70730;BME280;58315;53.336;55.932;2023-05-17T11:39:13;99903.81;;;27.14;21.36
70730;BME280;58315;53.336;55.932;2023-05-17T11:41:48;99905.81;;;26.96;21.15
70730;BME280;58315;53.336;55.932;2023-05-17T11:44:16;99908.50;;;27.07;21.48
70730;BME280;58315;53.336;55.932;2023-05-17T11:46:51;99899.09;;;27.22;21.30
70730;BME280;58315;53.336;55.932;2023-05-17T11:49:17;99890.81;;;27.28;21.42
70730;BME280;58315;53.336;55.932;2023-05-17T11:51:45;99890.47;;;27.13;21.46
70730;BME280;58315;53.336;55.932;2023-05-17T11:54:11;99884.47;;;27.11;21.32
70730;BME280;58315;53.336;55.932;2023-05-17T11:56:41;99884.94;;;27.08;21.06
70730;BME280;58315;53.336;55.932;2023-05-17T11:59:07;99878.19;;;27.22;21.45
70730;BME280;58315;53.336;55.932;2023-05-17T12:01:44;99873.47;;;27.29;21.46
70730;BME280;58315;53.336;55.932;2023-05-17T12:04:11;99869.38;;;27.15;21.74
70730;BME280;58315;53.336;55.932;2023-05-17T12:06:38;99881.88;;;27.04;21.36
70730;BME280;58315;53.336;55.932;2023-05-17T12:09:04;99878.03;;;26.88;21.50
70730;BME280;58315;53.336;55.932;2023-05-17T12:11:36;99881.28;;;26.90;21.19
70730;BME280;58315;53.336;55.932;2023-05-17T12:14:04;99876.00;;;26.96;21.78
70730;BME280;58315;53.336;55.932;2023-05-17T12:16:32;99880.69;;;27.00;21.05
70730;BME280;58315;53.336;55.932;2023-05-17T12:18:59;99887.31;;;26.92;21.30
70730;BME280;58315;53.336;55.932;2023-05-17T12:21:26;99889.34;;;26.85;21.56
70730;BME280;58315;53.336;55.932;2023-05-17T12:23:52;99875.69;;;26.80;20.93
70730;BME280;58315;53.336;55.932;2023-05-17T12:26:20;99879.88;;;27.00;21.28
70730;BME280;58315;53.336;55.932;2023-05-17T12:28:57;99876.44;;;27.16;21.29
70730;BME280;58315;53.336;55.932;2023-05-17T12:31:40;99871.00;;;27.28;21.28
70730;BME280;58315;53.336;55.932;2023-05-17T12:34:08;99875.97;;;27.19;21.46
70730;BME280;58315;53.336;55.932;2023-05-17T12:36:37;99884.69;;;27.09;21.25
70730;BME280;58315;53.336;55.932;2023-05-17T12:39:04;99872.66;;;27.05;21.07
70730;BME280;58315;53.336;55.932;2023-05-17T12:41:37;99885.19;;;26.83;21.24
70730;BME280;58315;53.336;55.932;2023-05-17T12:44:06;99882.00;;;26.98;21.26
70730;BME280;58315;53.336;55.932;2023-05-17T12:46:33;99867.97;;;27.12;21.54
70730;BME280;58315;53.336;55.932;2023-05-17T12:49:04;99864.78;;;27.04;21.31
70730;BME280;58315;53.336;55.932;2023-05-17T12:51:42;99869.16;;;26.93;21.23
70730;BME280;58315;53.336;55.932;2023-05-17T12:54:13;99871.63;;;26.94;21.43
70730;BME280;58315;53.336;55.932;2023-05-17T12:56:41;99873.03;;;26.97;21.50
70730;BME280;58315;53.336;55.932;2023-05-17T12:59:13;99878.03;;;26.88;21.34
70730;BME280;58315;53.336;55.932;2023-05-17T13:01:46;99870.94;;;26.76;21.39
70730;BME280;58315;53.336;55.932;2023-05-17T13:04:14;99869.03;;;27.00;21.81
70730;BME280;58315;53.336;55.932;2023-05-17T13:06:54;99864.63;;;27.22;21.19
70730;BME280;58315;53.336;55.932;2023-05-17T13:09:22;99867.41;;;26.99;20.95